sensor_id;sensor_type;location;lat;lon;timestamp;temperature;humidity
4755;DHT22;2391;47.212;7.542;2023-01-04T00:01:09;9.50;99.90
4755;DHT22;2391;47.212;7.542;2023-01-04T00:03:35;9.50;99.90
4755;DHT22;2391;47.212;7.542;2023-01-04T00:06:04;9.50;99.90
4755;DHT22;2391;47.212;7.542;2023-01-04T00:08:30;9.40;99.90
4755;DHT22;2391;47.212;7.542;2023-01-04T00:11:05;9.30;99.90
4755;DHT22;2391;47.212;7.542;2023-01-04T00:13:29;9.30;99.90
4755;DHT22;2391;47.212;7.542;2023-01-04T00:15:55;9.30;99.90
4755;DHT22;2391;47.212;7.542;2023-01-04T00:18:21;9.30;99.90
4755;DHT22;2391;47.212;7.542;2023-01-04T00:20:47;9.40;99.90
4755;DHT22;2391;47.212;7.542;2023-01-04T00:23:13;9.50;99.90
4755;DHT22;2391;47.212;7.542;2023-01-04T00:25:39;9.50;99.90
4755;DHT22;2391;47.212;7.542;2023-01-04T00:28:05;9.60;99.90
4755;DHT22;2391;47.212;7.542;2023-01-04T00:30:31;9.60;99.90
4755;DHT22;2391;47.212;7.542;2023-01-04T00:32:57;9.60;99.90
4755;DHT22;2391;47.212;7.542;2023-01-04T00:35:23;9.60;99.90
4755;DHT22;2391;47.212;7.542;2023-01-04T00:37:50;9.60;99.90
4755;DHT22;2391;47.212;7.542;2023-01-04T00:40:16;9.70;99.90
4755;DHT22;2391;47.212;7.542;2023-01-04T00:42:41;9.70;99.90
4755;DHT22;2391;47.212;7.542;2023-01-04T00:45:08;9.60;99.90
4755;DHT22;2391;47.212;7.542;2023-01-04T00:47:34;9.70;99.90
4755;DHT22;2391;47.212;7.542;2023-01-04T00:49:59;9.70;99.90
4755;DHT22;2391;47.212;7.542;2023-01-04T00:52:25;9.70;99.90
4755;DHT22;2391;47.212;7.542;2023-01-04T00:54:51;9.70;99.90
4755;DHT22;2391;47.212;7.542;2023-01-04T00:57:17;9.80;99.90
4755;DHT22;2391;47.212;7.542;2023-01-04T00:59:43;9.80;99.90
4755;DHT22;2391;47.212;7.542;2023-01-04T01:02:08;9.80;99.90
4755;DHT22;2391;47.212;7.542;2023-01-04T01:04:35;9.80;99.90
4755;DHT22;2391;47.212;7.542;2023-01-04T01:07:01;9.80;99.90
4755;DHT22;2391;47.212;7.542;2023-01-04T01:09:27;9.70;99.90
4755;DHT22;2391;47.212;7.542;2023-01-04T01:11:53;9.60;99.90
4755;DHT22;2391;47.212;7.542;2023-01-04T01:14:22;9.60;99.90
4755;DHT22;2391;47.212;7.542;2023-01-04T01:16:48;9.60;99.90
4755;DHT22;2391;47.212;7.542;2023-01-04T01:19:13;9.50;99.90
4755;DHT22;2391;47.212;7.542;2023-01-04T01:21:40;9.30;99.90
4755;DHT22;2391;47.212;7.542;2023-01-04T01:24:07;9.20;99.90
4755;DHT22;2391;47.212;7.542;2023-01-04T01:26:34;9.10;99.90
4755;DHT22;2391;47.212;7.542;2023-01-04T01:29:00;9.00;99.90
4755;DHT22;2391;47.212;7.542;2023-01-04T01:31:27;9.00;99.90
4755;DHT22;2391;47.212;7.542;2023-01-04T01:33:54;8.90;99.90
4755;DHT22;2391;47.212;7.542;2023-01-04T01:36:23;8.80;99.90
4755;DHT22;2391;47.212;7.542;2023-01-04T01:38:49;8.80;99.90
4755;DHT22;2391;47.212;7.542;2023-01-04T01:41:23;8.90;99.90
4755;DHT22;2391;47.212;7.542;2023-01-04T01:43:55;8.90;99.90
4755;DHT22;2391;47.212;7.542;2023-01-04T01:51:40;9.00;99.90
4755;DHT22;2391;47.212;7.542;2023-01-04T01:54:09;9.00;99.90
4755;DHT22;2391;47.212;7.542;2023-01-04T01:56:37;9.00;99.90
4755;DHT22;2391;47.212;7.542;2023-01-04T01:59:05;9.10;99.90
4755;DHT22;2391;47.212;7.542;2023-01-04T02:01:32;9.10;99.90
4755;DHT22;2391;47.212;7.542;2023-01-04T02:03:59;9.20;99.90
4755;DHT22;2391;47.212;7.542;2023-01-04T02:06:32;9.20;99.90
4755;DHT22;2391;47.212;7.542;2023-01-04T02:09:00;9.20;99.90
4755;DHT22;2391;47.212;7.542;2023-01-04T02:11:26;9.10;99.90
4755;DHT22;2391;47.212;7.542;2023-01-04T02:13:54;9.00;99.90
4755;DHT22;2391;47.212;7.542;2023-01-04T02:17:03;9.00;99.90
4755;DHT22;2391;47.212;7.542;2023-01-04T02:27:58;8.90;99.90
4755;DHT22;2391;47.212;7.542;2023-01-04T02:36:36;8.70;99.90
4755;DHT22;2391;47.212;7.542;2023-01-04T02:44:56;8.40;99.90
4755;DHT22;2391;47.212;7.542;2023-01-04T02:47:31;8.30;99.90
4755;DHT22;2391;47.212;7.542;2023-01-04T02:53:12;8.20;99.90
4755;DHT22;2391;47.212;7.542;2023-01-04T03:10:14;7.90;99.90
4755;DHT22;2391;47.212;7.542;2023-01-04T03:12:46;8.00;99.90
4755;DHT22;2391;47.212;7.542;2023-01-04T03:15:22;8.10;99.90
4755;DHT22;2391;47.212;7.542;2023-01-04T03:18:06;8.20;99.90
4755;DHT22;2391;47.212;7.542;2023-01-04T03:20:29;8.10;99.90
4755;DHT22;2391;47.212;7.542;2023-01-04T03:23:04;8.10;99.90
4755;DHT22;2391;47.212;7.542;2023-01-04T03:25:52;8.20;99.90
4755;DHT22;2391;47.212;7.542;2023-01-04T03:28:36;8.10;99.90
4755;DHT22;2391;47.212;7.542;2023-01-04T03:31:31;8.10;99.90
4755;DHT22;2391;47.212;7.542;2023-01-04T03:34:16;8.10;99.90
4755;DHT22;2391;47.212;7.542;2023-01-04T03:37:13;8.20;99.90
4755;DHT22;2391;47.212;7.542;2023-01-04T03:42:49;8.20;99.90
4755;DHT22;2391;47.212;7.542;2023-01-04T03:45:39;8.20;99.90
4755;DHT22;2391;47.212;7.542;2023-01-04T03:48:40;8.30;99.90
4755;DHT22;2391;47.212;7.542;2023-01-04T03:51:16;8.20;99.90
4755;DHT22;2391;47.212;7.542;2023-01-04T03:54:11;8.30;99.90
4755;DHT22;2391;47.212;7.542;2023-01-04T03:56:36;8.30;99.90
4755;DHT22;2391;47.212;7.542;2023-01-04T03:59:03;8.30;99.90
4755;DHT22;2391;47.212;7.542;2023-01-04T04:01:30;8.30;99.90
4755;DHT22;2391;47.212;7.542;2023-01-04T04:03:56;8.20;99.90
4755;DHT22;2391;47.212;7.542;2023-01-04T04:06:40;8.20;99.90
4755;DHT22;2391;47.212;7.542;2023-01-04T04:09:24;8.20;99.90
4755;DHT22;2391;47.212;7.542;2023-01-04T04:11:50;8.30;99.90
4755;DHT22;2391;47.212;7.542;2023-01-04T04:14:16;8.30;99.90
4755;DHT22;2391;47.212;7.542;2023-01-04T04:16:42;8.40;99.90
4755;DHT22;2391;47.212;7.542;2023-01-04T04:19:07;8.40;99.90
4755;DHT22;2391;47.212;7.542;2023-01-04T04:21:33;8.50;99.90
4755;DHT22;2391;47.212;7.542;2023-01-04T04:23:59;8.50;99.90
4755;DHT22;2391;47.212;7.542;2023-01-04T04:26:25;8.40;99.90
4755;DHT22;2391;47.212;7.542;2023-01-04T04:28:53;8.40;99.90
4755;DHT22;2391;47.212;7.542;2023-01-04T04:31:19;8.40;99.90
4755;DHT22;2391;47.212;7.542;2023-01-04T04:33:45;8.40;99.90
4755;DHT22;2391;47.212;7.542;2023-01-04T04:36:10;8.40;99.90
4755;DHT22;2391;47.212;7.542;2023-01-04T04:38:36;8.40;99.90
4755;DHT22;2391;47.212;7.542;2023-01-04T04:41:08;8.40;99.90
4755;DHT22;2391;47.212;7.542;2023-01-04T04:43:53;8.40;99.90
4755;DHT22;2391;47.212;7.542;2023-01-04T04:46:19;8.30;99.90
4755;DHT22;2391;47.212;7.542;2023-01-04T04:48:45;8.30;99.90
4755;DHT22;2391;47.212;7.542;2023-01-04T04:51:11;8.30;99.90
4755;DHT22;2391;47.212;7.542;2023-01-04T04:53:37;8.30;99.90
4755;DHT22;2391;47.212;7.542;2023-01-04T04:56:03;8.30;99.90
4755;DHT22;2391;47.212;7.542;2023-01-04T04:58:28;8.20;99.90
4755;DHT22;2391;47.212;7.542;2023-01-04T05:00:54;8.20;99.90
4755;DHT22;2391;47.212;7.542;2023-01-04T05:03:20;8.30;99.90
4755;DHT22;2391;47.212;7.542;2023-01-04T05:05:46;8.40;99.90
4755;DHT22;2391;47.212;7.542;2023-01-04T05:08:12;8.40;99.90
4755;DHT22;2391;47.212;7.542;2023-01-04T05:10:38;8.40;99.90
4755;DHT22;2391;47.212;7.542;2023-01-04T05:13:04;8.40;99.90
4755;DHT22;2391;47.212;7.542;2023-01-04T05:15:43;8.50;99.90
4755;DHT22;2391;47.212;7.542;2023-01-04T05:18:10;8.60;99.90
4755;DHT22;2391;47.212;7.542;2023-01-04T05:20:37;8.70;99.90
4755;DHT22;2391;47.212;7.542;2023-01-04T05:23:04;8.70;99.90
4755;DHT22;2391;47.212;7.542;2023-01-04T05:25:30;8.70;99.90
4755;DHT22;2391;47.212;7.542;2023-01-04T05:27:56;8.60;99.90
4755;DHT22;2391;47.212;7.542;2023-01-04T05:30:22;8.60;99.90
4755;DHT22;2391;47.212;7.542;2023-01-04T05:33:06;8.50;99.90
4755;DHT22;2391;47.212;7.542;2023-01-04T05:35:32;8.50;99.90
4755;DHT22;2391;47.212;7.542;2023-01-04T05:37:59;8.50;99.90
4755;DHT22;2391;47.212;7.542;2023-01-04T05:40:25;8.40;99.90
4755;DHT22;2391;47.212;7.542;2023-01-04T05:42:51;8.40;99.90
4755;DHT22;2391;47.212;7.542;2023-01-04T05:45:17;8.30;99.90
4755;DHT22;2391;47.212;7.542;2023-01-04T05:47:47;8.30;99.90
4755;DHT22;2391;47.212;7.542;2023-01-04T05:50:14;8.30;99.90
4755;DHT22;2391;47.212;7.542;2023-01-04T05:52:40;8.30;99.90
4755;DHT22;2391;47.212;7.542;2023-01-04T05:55:05;8.20;99.90
4755;DHT22;2391;47.212;7.542;2023-01-04T05:57:31;8.20;99.90
4755;DHT22;2391;47.212;7.542;2023-01-04T05:59:57;8.20;99.90
4755;DHT22;2391;47.212;7.542;2023-01-04T06:02:27;8.20;99.90
4755;DHT22;2391;47.212;7.542;2023-01-04T06:04:52;8.20;99.90
4755;DHT22;2391;47.212;7.542;2023-01-04T06:07:18;8.30;99.90
4755;DHT22;2391;47.212;7.542;2023-01-04T06:09:44;8.30;99.90
4755;DHT22;2391;47.212;7.542;2023-01-04T06:12:10;8.30;99.90
4755;DHT22;2391;47.212;7.542;2023-01-04T06:14:36;8.40;99.90
4755;DHT22;2391;47.212;7.542;2023-01-04T06:17:02;8.50;99.90
4755;DHT22;2391;47.212;7.542;2023-01-04T06:19:28;8.60;99.90
4755;DHT22;2391;47.212;7.542;2023-01-04T06:21:53;8.60;99.90
4755;DHT22;2391;47.212;7.542;2023-01-04T06:24:19;8.60;99.90
4755;DHT22;2391;47.212;7.542;2023-01-04T06:26:46;8.60;99.90
4755;DHT22;2391;47.212;7.542;2023-01-04T06:29:12;8.70;99.90
4755;DHT22;2391;47.212;7.542;2023-01-04T06:31:38;8.70;99.90
4755;DHT22;2391;47.212;7.542;2023-01-04T06:34:04;8.60;99.90
4755;DHT22;2391;47.212;7.542;2023-01-04T06:36:30;8.50;99.90
4755;DHT22;2391;47.212;7.542;2023-01-04T06:38:57;8.40;99.90
4755;DHT22;2391;47.212;7.542;2023-01-04T06:41:23;8.40;99.90
4755;DHT22;2391;47.212;7.542;2023-01-04T06:43:49;8.30;99.90
4755;DHT22;2391;47.212;7.542;2023-01-04T06:46:15;8.30;99.90
4755;DHT22;2391;47.212;7.542;2023-01-04T06:48:41;8.30;99.90
4755;DHT22;2391;47.212;7.542;2023-01-04T06:51:07;8.30;99.90
4755;DHT22;2391;47.212;7.542;2023-01-04T06:53:33;8.40;99.90
4755;DHT22;2391;47.212;7.542;2023-01-04T06:55:59;8.40;99.90
4755;DHT22;2391;47.212;7.542;2023-01-04T06:58:25;8.50;99.90
4755;DHT22;2391;47.212;7.542;2023-01-04T07:00:52;8.60;99.90
4755;DHT22;2391;47.212;7.542;2023-01-04T07:03:18;8.60;99.90
4755;DHT22;2391;47.212;7.542;2023-01-04T07:05:44;8.60;99.90
4755;DHT22;2391;47.212;7.542;2023-01-04T07:08:11;8.60;99.90
4755;DHT22;2391;47.212;7.542;2023-01-04T07:10:37;8.60;99.90
4755;DHT22;2391;47.212;7.542;2023-01-04T07:13:02;8.60;99.90
4755;DHT22;2391;47.212;7.542;2023-01-04T07:15:28;8.50;99.90
4755;DHT22;2391;47.212;7.542;2023-01-04T07:17:54;8.50;99.90
4755;DHT22;2391;47.212;7.542;2023-01-04T07:20:20;8.50;99.90
4755;DHT22;2391;47.212;7.542;2023-01-04T07:22:46;8.50;99.90
4755;DHT22;2391;47.212;7.542;2023-01-04T07:25:11;8.60;99.90
4755;DHT22;2391;47.212;7.542;2023-01-04T07:27:37;8.60;99.90
4755;DHT22;2391;47.212;7.542;2023-01-04T07:30:03;8.50;99.90
4755;DHT22;2391;47.212;7.542;2023-01-04T07:32:29;8.40;99.90
4755;DHT22;2391;47.212;7.542;2023-01-04T07:34:55;8.50;99.90
4755;DHT22;2391;47.212;7.542;2023-01-04T07:37:21;8.50;99.90
4755;DHT22;2391;47.212;7.542;2023-01-04T07:39:47;8.50;99.90
4755;DHT22;2391;47.212;7.542;2023-01-04T07:42:14;8.60;99.90
4755;DHT22;2391;47.212;7.542;2023-01-04T07:44:39;8.60;99.90
4755;DHT22;2391;47.212;7.542;2023-01-04T07:47:05;8.60;99.90
4755;DHT22;2391;47.212;7.542;2023-01-04T07:49:31;8.60;99.90
4755;DHT22;2391;47.212;7.542;2023-01-04T07:51:57;8.60;99.90
4755;DHT22;2391;47.212;7.542;2023-01-04T07:54:23;8.60;99.90
4755;DHT22;2391;47.212;7.542;2023-01-04T07:56:49;8.70;99.90
4755;DHT22;2391;47.212;7.542;2023-01-04T07:59:17;8.70;99.90
4755;DHT22;2391;47.212;7.542;2023-01-04T08:01:43;8.70;99.90
4755;DHT22;2391;47.212;7.542;2023-01-04T08:04:11;8.80;99.90
4755;DHT22;2391;47.212;7.542;2023-01-04T08:06:38;8.80;99.90
4755;DHT22;2391;47.212;7.542;2023-01-04T08:09:05;8.80;99.90
4755;DHT22;2391;47.212;7.542;2023-01-04T08:11:32;8.70;99.90
4755;DHT22;2391;47.212;7.542;2023-01-04T08:13:58;8.70;99.90
4755;DHT22;2391;47.212;7.542;2023-01-04T08:16:26;8.80;99.90
4755;DHT22;2391;47.212;7.542;2023-01-04T08:19:01;8.80;99.90
4755;DHT22;2391;47.212;7.542;2023-01-04T08:21:24;8.90;99.90
4755;DHT22;2391;47.212;7.542;2023-01-04T08:23:51;8.90;99.90
4755;DHT22;2391;47.212;7.542;2023-01-04T08:26:17;8.90;99.90
4755;DHT22;2391;47.212;7.542;2023-01-04T08:28:44;9.00;99.90
4755;DHT22;2391;47.212;7.542;2023-01-04T08:31:20;9.00;99.90
4755;DHT22;2391;47.212;7.542;2023-01-04T08:33:43;9.10;99.90
4755;DHT22;2391;47.212;7.542;2023-01-04T08:38:46;9.10;99.90
4755;DHT22;2391;47.212;7.542;2023-01-04T08:41:13;9.10;99.90
4755;DHT22;2391;47.212;7.542;2023-01-04T08:43:40;9.10;99.90
4755;DHT22;2391;47.212;7.542;2023-01-04T08:46:06;9.10;99.90
4755;DHT22;2391;47.212;7.542;2023-01-04T08:48:33;9.20;99.90
4755;DHT22;2391;47.212;7.542;2023-01-04T08:51:00;9.20;99.90
4755;DHT22;2391;47.212;7.542;2023-01-04T08:53:27;9.20;99.90
4755;DHT22;2391;47.212;7.542;2023-01-04T08:55:54;9.20;99.90
4755;DHT22;2391;47.212;7.542;2023-01-04T08:58:21;9.20;99.90
4755;DHT22;2391;47.212;7.542;2023-01-04T09:00:47;9.30;99.90
4755;DHT22;2391;47.212;7.542;2023-01-04T09:03:15;9.20;99.90
4755;DHT22;2391;47.212;7.542;2023-01-04T09:05:41;9.20;99.90
4755;DHT22;2391;47.212;7.542;2023-01-04T09:08:07;9.20;99.90
4755;DHT22;2391;47.212;7.542;2023-01-04T09:10:36;9.20;99.90
4755;DHT22;2391;47.212;7.542;2023-01-04T09:13:04;9.10;99.90
4755;DHT22;2391;47.212;7.542;2023-01-04T09:15:31;9.10;99.90
4755;DHT22;2391;47.212;7.542;2023-01-04T09:17:58;8.90;99.90
4755;DHT22;2391;47.212;7.542;2023-01-04T09:20:24;8.90;99.90
4755;DHT22;2391;47.212;7.542;2023-01-04T09:22:50;8.90;99.90
4755;DHT22;2391;47.212;7.542;2023-01-04T09:25:16;9.00;99.90
4755;DHT22;2391;47.212;7.542;2023-01-04T09:27:43;9.00;99.90
4755;DHT22;2391;47.212;7.542;2023-01-04T09:30:09;9.00;99.90
4755;DHT22;2391;47.212;7.542;2023-01-04T09:32:35;9.00;99.90
4755;DHT22;2391;47.212;7.542;2023-01-04T09:35:01;8.90;99.90
4755;DHT22;2391;47.212;7.542;2023-01-04T09:37:27;8.90;99.90
4755;DHT22;2391;47.212;7.542;2023-01-04T09:39:53;8.90;99.90
4755;DHT22;2391;47.212;7.542;2023-01-04T09:42:31;8.90;99.90
4755;DHT22;2391;47.212;7.542;2023-01-04T09:45:19;9.00;99.90
4755;DHT22;2391;47.212;7.542;2023-01-04T09:47:49;9.00;99.90
4755;DHT22;2391;47.212;7.542;2023-01-04T09:55:33;8.90;99.90
4755;DHT22;2391;47.212;7.542;2023-01-04T09:58:05;8.80;99.90
4755;DHT22;2391;47.212;7.542;2023-01-04T10:00:41;8.80;99.90
4755;DHT22;2391;47.212;7.542;2023-01-04T10:05:35;8.80;99.90
4755;DHT22;2391;47.212;7.542;2023-01-04T10:08:01;8.80;99.90
4755;DHT22;2391;47.212;7.542;2023-01-04T10:13:29;8.90;99.90
4755;DHT22;2391;47.212;7.542;2023-01-04T10:19:06;8.80;99.90
4755;DHT22;2391;47.212;7.542;2023-01-04T10:21:41;8.80;99.90
4755;DHT22;2391;47.212;7.542;2023-01-04T10:27:04;8.90;99.90
4755;DHT22;2391;47.212;7.542;2023-01-04T10:32:23;9.00;99.90
4755;DHT22;2391;47.212;7.542;2023-01-04T10:34:47;9.10;99.90
4755;DHT22;2391;47.212;7.542;2023-01-04T10:37:22;9.10;99.90
4755;DHT22;2391;47.212;7.542;2023-01-04T10:39:53;9.10;99.90
4755;DHT22;2391;47.212;7.542;2023-01-04T10:42:35;9.10;99.90
4755;DHT22;2391;47.212;7.542;2023-01-04T10:45:16;9.20;99.90
4755;DHT22;2391;47.212;7.542;2023-01-04T10:58:25;9.10;99.90
4755;DHT22;2391;47.212;7.542;2023-01-04T11:00:54;9.10;99.90
4755;DHT22;2391;47.212;7.542;2023-01-04T11:03:32;9.20;99.90
4755;DHT22;2391;47.212;7.542;2023-01-04T11:06:02;9.30;99.90
4755;DHT22;2391;47.212;7.542;2023-01-04T11:08:33;9.30;99.90
4755;DHT22;2391;47.212;7.542;2023-01-04T11:11:06;9.30;99.90
4755;DHT22;2391;47.212;7.542;2023-01-04T11:13:32;9.30;99.90
4755;DHT22;2391;47.212;7.542;2023-01-04T11:15:58;9.40;99.90
4755;DHT22;2391;47.212;7.542;2023-01-04T11:18:27;9.30;99.90
4755;DHT22;2391;47.212;7.542;2023-01-04T11:20:53;9.40;99.90
4755;DHT22;2391;47.212;7.542;2023-01-04T11:23:19;9.40;99.90
4755;DHT22;2391;47.212;7.542;2023-01-04T11:25:58;9.40;99.90
4755;DHT22;2391;47.212;7.542;2023-01-04T11:36:38;9.30;99.90
4755;DHT22;2391;47.212;7.542;2023-01-04T11:39:06;9.30;99.90
4755;DHT22;2391;47.212;7.542;2023-01-04T11:41:33;9.30;99.90
4755;DHT22;2391;47.212;7.542;2023-01-04T11:44:03;9.20;99.90
4755;DHT22;2391;47.212;7.542;2023-01-04T11:46:31;9.30;99.90
4755;DHT22;2391;47.212;7.542;2023-01-04T11:48:59;9.30;99.90
4755;DHT22;2391;47.212;7.542;2023-01-04T11:54:16;9.40;99.90
4755;DHT22;2391;47.212;7.542;2023-01-04T11:57:02;9.40;99.90
4755;DHT22;2391;47.212;7.542;2023-01-04T11:59:28;9.50;99.90
4755;DHT22;2391;47.212;7.542;2023-01-04T12:04:42;9.50;99.90
4755;DHT22;2391;47.212;7.542;2023-01-04T12:07:26;9.60;99.90
4755;DHT22;2391;47.212;7.542;2023-01-04T12:09:52;9.60;99.90
4755;DHT22;2391;47.212;7.542;2023-01-04T12:12:18;9.60;99.90
4755;DHT22;2391;47.212;7.542;2023-01-04T12:14:48;9.60;99.90
4755;DHT22;2391;47.212;7.542;2023-01-04T12:17:37;9.60;99.90
4755;DHT22;2391;47.212;7.542;2023-01-04T12:20:04;9.60;99.90
4755;DHT22;2391;47.212;7.542;2023-01-04T12:22:40;9.60;99.90
4755;DHT22;2391;47.212;7.542;2023-01-04T12:25:04;9.70;99.90
4755;DHT22;2391;47.212;7.542;2023-01-04T12:27:33;9.70;99.90
4755;DHT22;2391;47.212;7.542;2023-01-04T12:30:01;9.70;99.90
4755;DHT22;2391;47.212;7.542;2023-01-04T12:34:56;9.80;99.90
4755;DHT22;2391;47.212;7.542;2023-01-04T12:43:24;9.80;99.90
4755;DHT22;2391;47.212;7.542;2023-01-04T12:48:41;9.90;99.90
4755;DHT22;2391;47.212;7.542;2023-01-04T12:51:26;9.80;99.90
4755;DHT22;2391;47.212;7.542;2023-01-04T12:53:58;9.80;99.90
4755;DHT22;2391;47.212;7.542;2023-01-04T12:59:35;9.80;99.90
4755;DHT22;2391;47.212;7.542;2023-01-04T13:02:18;9.80;99.90
4755;DHT22;2391;47.212;7.542;2023-01-04T13:04:45;9.80;99.90
4755;DHT22;2391;47.212;7.542;2023-01-04T13:07:21;9.80;99.90
4755;DHT22;2391;47.212;7.542;2023-01-04T13:09:50;9.80;99.90
4755;DHT22;2391;47.212;7.542;2023-01-04T13:14:58;9.80;99.90
4755;DHT22;2391;47.212;7.542;2023-01-04T13:17:25;9.90;99.90
4755;DHT22;2391;47.212;7.542;2023-01-04T13:19:51;9.90;99.90
4755;DHT22;2391;47.212;7.542;2023-01-04T13:22:20;10.00;99.90
4755;DHT22;2391;47.212;7.542;2023-01-04T13:24:47;10.10;99.90
4755;DHT22;2391;47.212;7.542;2023-01-04T13:27:20;10.10;99.90
4755;DHT22;2391;47.212;7.542;2023-01-04T13:29:48;10.10;99.90
4755;DHT22;2391;47.212;7.542;2023-01-04T13:37:36;10.10;99.90
4755;DHT22;2391;47.212;7.542;2023-01-04T13:42:47;10.00;99.90
4755;DHT22;2391;47.212;7.542;2023-01-04T13:47:50;10.10;99.90
4755;DHT22;2391;47.212;7.542;2023-01-04T13:50:32;10.10;99.90
4755;DHT22;2391;47.212;7.542;2023-01-04T13:52:59;10.10;99.90
4755;DHT22;2391;47.212;7.542;2023-01-04T13:55:28;10.20;99.90
4755;DHT22;2391;47.212;7.542;2023-01-04T13:58:00;10.20;99.90
4755;DHT22;2391;47.212;7.542;2023-01-04T14:00:32;10.10;99.90
4755;DHT22;2391;47.212;7.542;2023-01-04T14:03:32;10.10;99.90
4755;DHT22;2391;47.212;7.542;2023-01-04T14:06:11;10.10;99.90
4755;DHT22;2391;47.212;7.542;2023-01-04T14:11:40;10.00;99.90
4755;DHT22;2391;47.212;7.542;2023-01-04T14:22:28;10.00;99.90
4755;DHT22;2391;47.212;7.542;2023-01-04T14:24:57;10.00;99.90
4755;DHT22;2391;47.212;7.542;2023-01-04T14:27:36;10.00;99.90
4755;DHT22;2391;47.212;7.542;2023-01-04T14:32:58;10.00;99.90
4755;DHT22;2391;47.212;7.542;2023-01-04T14:35:26;10.10;99.90
4755;DHT22;2391;47.212;7.542;2023-01-04T14:37:53;10.10;99.90
4755;DHT22;2391;47.212;7.542;2023-01-04T14:40:28;10.10;99.90
4755;DHT22;2391;47.212;7.542;2023-01-04T14:42:56;10.20;99.90
4755;DHT22;2391;47.212;7.542;2023-01-04T14:45:22;10.30;99.90
4755;DHT22;2391;47.212;7.542;2023-01-04T14:47:48;10.30;99.90
4755;DHT22;2391;47.212;7.542;2023-01-04T14:50:15;10.40;99.90
4755;DHT22;2391;47.212;7.542;2023-01-04T14:52:53;10.40;99.90
4755;DHT22;2391;47.212;7.542;2023-01-04T14:55:19;10.40;99.90
4755;DHT22;2391;47.212;7.542;2023-01-04T14:57:47;10.40;99.90
4755;DHT22;2391;47.212;7.542;2023-01-04T15:00:14;10.40;99.90
4755;DHT22;2391;47.212;7.542;2023-01-04T15:02:40;10.30;99.90
4755;DHT22;2391;47.212;7.542;2023-01-04T15:05:07;10.30;99.90
4755;DHT22;2391;47.212;7.542;2023-01-04T15:07:37;10.20;99.90
4755;DHT22;2391;47.212;7.542;2023-01-04T15:10:14;10.30;99.90
4755;DHT22;2391;47.212;7.542;2023-01-04T15:12:34;10.30;99.90
4755;DHT22;2391;47.212;7.542;2023-01-04T15:15:00;10.20;99.90
4755;DHT22;2391;47.212;7.542;2023-01-04T15:17:26;10.20;99.90
4755;DHT22;2391;47.212;7.542;2023-01-04T15:19:52;10.10;99.90
4755;DHT22;2391;47.212;7.542;2023-01-04T15:22:17;10.10;99.90
4755;DHT22;2391;47.212;7.542;2023-01-04T15:24:43;10.20;99.90
4755;DHT22;2391;47.212;7.542;2023-01-04T15:27:09;10.30;99.90
4755;DHT22;2391;47.212;7.542;2023-01-04T15:29:35;10.30;99.90
4755;DHT22;2391;47.212;7.542;2023-01-04T15:32:00;10.40;99.90
4755;DHT22;2391;47.212;7.542;2023-01-04T15:34:26;10.40;99.90
4755;DHT22;2391;47.212;7.542;2023-01-04T15:36:52;10.40;99.90
4755;DHT22;2391;47.212;7.542;2023-01-04T15:39:18;10.40;99.90
4755;DHT22;2391;47.212;7.542;2023-01-04T15:41:43;10.40;99.90
4755;DHT22;2391;47.212;7.542;2023-01-04T15:44:28;10.50;99.90
4755;DHT22;2391;47.212;7.542;2023-01-04T15:46:55;10.50;99.90
4755;DHT22;2391;47.212;7.542;2023-01-04T15:52:44;10.60;99.90
4755;DHT22;2391;47.212;7.542;2023-01-04T15:58:32;10.50;99.90
4755;DHT22;2391;47.212;7.542;2023-01-04T16:04:19;10.50;99.90
4755;DHT22;2391;47.212;7.542;2023-01-04T16:10:07;10.50;99.90
4755;DHT22;2391;47.212;7.542;2023-01-04T16:15:59;10.50;99.90
4755;DHT22;2391;47.212;7.542;2023-01-04T16:21:46;10.50;99.90
4755;DHT22;2391;47.212;7.542;2023-01-04T16:27:34;10.50;99.90
4755;DHT22;2391;47.212;7.542;2023-01-04T16:30:04;10.60;99.90
4755;DHT22;2391;47.212;7.542;2023-01-04T16:32:30;10.70;99.90
4755;DHT22;2391;47.212;7.542;2023-01-04T16:34:55;10.80;99.90
4755;DHT22;2391;47.212;7.542;2023-01-04T16:37:26;10.80;99.90
4755;DHT22;2391;47.212;7.542;2023-01-04T16:39:53;10.90;99.90
4755;DHT22;2391;47.212;7.542;2023-01-04T16:42:19;10.90;99.90
4755;DHT22;2391;47.212;7.542;2023-01-04T16:44:45;10.80;99.90
4755;DHT22;2391;47.212;7.542;2023-01-04T16:47:11;10.80;99.90
4755;DHT22;2391;47.212;7.542;2023-01-04T16:49:37;10.80;99.90
4755;DHT22;2391;47.212;7.542;2023-01-04T16:52:03;10.70;99.90
4755;DHT22;2391;47.212;7.542;2023-01-04T16:54:31;10.70;99.90
4755;DHT22;2391;47.212;7.542;2023-01-04T16:56:57;10.70;99.90
4755;DHT22;2391;47.212;7.542;2023-01-04T16:59:23;10.70;99.90
4755;DHT22;2391;47.212;7.542;2023-01-04T17:01:49;10.80;99.90
4755;DHT22;2391;47.212;7.542;2023-01-04T17:04:17;10.80;99.90
4755;DHT22;2391;47.212;7.542;2023-01-04T17:06:45;10.70;99.90
4755;DHT22;2391;47.212;7.542;2023-01-04T17:09:13;10.60;99.90
4755;DHT22;2391;47.212;7.542;2023-01-04T17:11:40;10.60;99.90
4755;DHT22;2391;47.212;7.542;2023-01-04T17:14:07;10.60;99.90
4755;DHT22;2391;47.212;7.542;2023-01-04T17:16:33;10.60;99.90
4755;DHT22;2391;47.212;7.542;2023-01-04T17:18:59;10.60;99.90
4755;DHT22;2391;47.212;7.542;2023-01-04T17:21:26;10.70;99.90
4755;DHT22;2391;47.212;7.542;2023-01-04T17:23:54;10.70;99.90
4755;DHT22;2391;47.212;7.542;2023-01-04T17:26:27;10.80;99.90
4755;DHT22;2391;47.212;7.542;2023-01-04T17:28:50;10.80;99.90
4755;DHT22;2391;47.212;7.542;2023-01-04T17:31:24;10.70;99.90
4755;DHT22;2391;47.212;7.542;2023-01-04T17:33:46;10.70;99.90
4755;DHT22;2391;47.212;7.542;2023-01-04T17:36:14;10.70;99.90
4755;DHT22;2391;47.212;7.542;2023-01-04T17:38:43;10.60;99.90
4755;DHT22;2391;47.212;7.542;2023-01-04T17:43:39;10.60;99.90
4755;DHT22;2391;47.212;7.542;2023-01-04T17:46:06;10.70;99.90
4755;DHT22;2391;47.212;7.542;2023-01-04T17:48:34;10.70;99.90
4755;DHT22;2391;47.212;7.542;2023-01-04T17:51:11;10.60;99.90
4755;DHT22;2391;47.212;7.542;2023-01-04T17:53:38;10.60;99.90
4755;DHT22;2391;47.212;7.542;2023-01-04T17:56:06;10.50;99.90
4755;DHT22;2391;47.212;7.542;2023-01-04T17:58:33;10.50;99.90
4755;DHT22;2391;47.212;7.542;2023-01-04T18:01:05;10.50;99.90
4755;DHT22;2391;47.212;7.542;2023-01-04T18:03:27;10.50;99.90
4755;DHT22;2391;47.212;7.542;2023-01-04T18:05:53;10.60;99.90
4755;DHT22;2391;47.212;7.542;2023-01-04T18:08:22;10.60;99.90
4755;DHT22;2391;47.212;7.542;2023-01-04T18:10:48;10.60;99.90
4755;DHT22;2391;47.212;7.542;2023-01-04T18:13:14;10.60;99.90
4755;DHT22;2391;47.212;7.542;2023-01-04T18:15:40;10.50;99.90
4755;DHT22;2391;47.212;7.542;2023-01-04T18:18:06;10.50;99.90
4755;DHT22;2391;47.212;7.542;2023-01-04T18:20:31;10.50;99.90
4755;DHT22;2391;47.212;7.542;2023-01-04T18:22:57;10.60;99.90
4755;DHT22;2391;47.212;7.542;2023-01-04T18:25:23;10.60;99.90
4755;DHT22;2391;47.212;7.542;2023-01-04T18:27:49;10.60;99.90
4755;DHT22;2391;47.212;7.542;2023-01-04T18:30:15;10.70;99.90
4755;DHT22;2391;47.212;7.542;2023-01-04T18:32:41;10.70;99.90
4755;DHT22;2391;47.212;7.542;2023-01-04T18:35:07;10.70;99.90
4755;DHT22;2391;47.212;7.542;2023-01-04T18:37:33;10.60;99.90
4755;DHT22;2391;47.212;7.542;2023-01-04T18:40:01;10.60;99.90
4755;DHT22;2391;47.212;7.542;2023-01-04T18:42:28;10.70;99.90
4755;DHT22;2391;47.212;7.542;2023-01-04T18:44:54;10.70;99.90
4755;DHT22;2391;47.212;7.542;2023-01-04T18:47:20;10.70;99.90
4755;DHT22;2391;47.212;7.542;2023-01-04T18:49:48;10.70;99.90
4755;DHT22;2391;47.212;7.542;2023-01-04T18:52:14;10.60;99.90
4755;DHT22;2391;47.212;7.542;2023-01-04T18:54:40;10.60;99.90
4755;DHT22;2391;47.212;7.542;2023-01-04T18:57:07;10.60;99.90
4755;DHT22;2391;47.212;7.542;2023-01-04T18:59:33;10.60;99.90
4755;DHT22;2391;47.212;7.542;2023-01-04T19:01:59;10.60;99.90